Time;durP1;ratioP1;P1;durP2;ratioP2;P2;SDS_P1;SDS_P2;PMS_P1;PMS_P2;Temp;Humidity;BMP_temperature;BMP_pressure;BME280_temperature;BME280_humidity;BME280_pressure;Samples;Min_cycle;Max_cycle;Signal;HPM_P1;HPM_P2
2022/03/09 00:01:45;;;;;;;13.43;6.67;;;;;;;5.63;78.00;101201.31;10259147;28;20671;-67
2022/03/09 00:06:49;;;;;;;15.13;5.73;;;;;;;5.43;78.44;101207.69;10259188;28;20197;-67
2022/03/09 00:11:52;;;;;;;14.17;5.80;;;;;;;5.40;78.91;101217.03;10257709;28;20210;-64
2022/03/09 00:16:57;;;;;;;14.57;6.50;;;;;;;5.52;80.11;101204.47;10255224;28;20244;-66
2022/03/09 00:22:04;;;;;;;18.03;6.03;;;;;;;5.55;78.80;101199.38;10255592;28;20220;-69
2022/03/09 00:27:07;;;;;;;16.77;6.70;;;;;;;5.55;79.06;101208.00;10255311;28;20574;-67
2022/03/09 00:32:13;;;;;;;15.13;6.37;;;;;;;5.60;78.47;101205.50;10254978;28;20684;-70
2022/03/09 00:37:16;;;;;;;13.20;6.43;;;;;;;5.52;79.14;101207.03;10257977;28;20220;-68
2022/03/09 00:42:19;;;;;;;17.33;6.63;;;;;;;5.61;77.67;101204.66;10257773;28;20220;-66
2022/03/09 00:47:24;;;;;;;19.30;6.13;;;;;;;5.58;77.89;101196.88;10257419;28;20196;-68
2022/03/09 00:52:27;;;;;;;18.23;7.40;;;;;;;5.56;78.68;101202.00;10257324;28;20203;-67
2022/03/09 00:57:31;;;;;;;16.13;6.57;;;;;;;5.48;80.40;101202.66;10257411;28;20203;-67
2022/03/09 01:02:41;;;;;;;13.73;6.27;;;;;;;5.52;80.33;101201.91;10257075;28;20683;-68
2022/03/09 01:07:45;;;;;;;13.33;6.90;;;;;;;5.46;79.81;101202.63;10257036;28;20308;-70
2022/03/09 01:12:48;;;;;;;17.67;6.90;;;;;;;5.44;80.25;101195.69;10256425;28;20234;-71
2022/03/09 01:17:53;;;;;;;19.40;7.73;;;;;;;5.54;79.61;101185.63;10256530;28;20251;-67
2022/03/09 01:22:56;;;;;;;14.53;6.60;;;;;;;5.51;79.44;101184.69;10256478;28;20232;-63
2022/03/09 01:27:59;;;;;;;16.70;6.83;;;;;;;5.47;79.77;101188.03;10256553;28;20196;-68
2022/03/09 01:33:04;;;;;;;16.40;6.47;;;;;;;5.38;81.40;101187.81;10256046;28;20269;-64
2022/03/09 01:38:07;;;;;;;19.60;7.00;;;;;;;5.37;82.95;101191.22;10256182;28;20308;-68
2022/03/09 01:43:11;;;;;;;18.47;7.83;;;;;;;5.42;81.95;101189.63;10256197;28;20239;-66
2022/03/09 01:48:15;;;;;;;21.77;7.83;;;;;;;5.45;81.32;101189.72;10255976;28;20215;-68
2022/03/09 01:53:19;;;;;;;13.50;6.33;;;;;;;5.43;81.40;101187.09;10255711;28;20234;-68
2022/03/09 01:58:22;;;;;;;17.40;6.90;;;;;;;5.45;80.33;101184.56;10254088;28;20690;-68
2022/03/09 02:03:27;;;;;;;17.97;7.50;;;;;;;5.43;80.13;101174.22;9889462;28;9999892;-71
2022/03/09 02:13:52;;;;;;;15.57;7.03;;;;;;;5.36;81.05;101154.34;10212450;29;20221;-68
2022/03/09 02:18:57;;;;;;;18.03;8.13;;;;;;;5.39;79.90;101158.66;10212390;29;20283;-66
2022/03/09 02:24:01;;;;;;;18.60;8.33;;;;;;;5.36;80.14;101154.34;10215536;29;20681;-69
2022/03/09 02:29:05;;;;;;;19.80;7.77;;;;;;;5.25;80.44;101152.31;10221595;29;20654;-68
2022/03/09 02:34:08;;;;;;;17.97;8.00;;;;;;;5.27;80.60;101155.81;10222605;29;20236;-64
2022/03/09 02:39:14;;;;;;;16.77;8.00;;;;;;;5.29;80.21;101167.00;10222612;29;20309;-67
2022/03/09 02:44:17;;;;;;;19.93;7.97;;;;;;;5.20;80.05;101177.06;10222090;29;20303;-67
2022/03/09 02:49:21;;;;;;;19.27;8.40;;;;;;;5.24;80.31;101154.03;10222522;29;20292;-67
2022/03/09 02:54:26;;;;;;;21.37;8.03;;;;;;;5.19;80.54;101157.34;10221979;29;20224;-65
2022/03/09 02:59:29;;;;;;;14.40;7.33;;;;;;;5.26;79.52;101154.06;10221708;29;20225;-68
2022/03/09 03:04:32;;;;;;;16.27;7.70;;;;;;;5.25;78.57;101154.88;10221336;29;20239;-69
2022/03/09 03:09:37;;;;;;;20.50;7.60;;;;;;;5.24;78.85;101154.03;10221372;29;20244;-68
2022/03/09 03:14:41;;;;;;;20.07;7.43;;;;;;;5.20;78.88;101154.78;10221096;29;20244;-69
2022/03/09 03:19:44;;;;;;;18.10;6.83;;;;;;;5.19;79.35;101149.63;10221061;29;20224;-65
2022/03/09 03:24:49;;;;;;;18.87;7.17;;;;;;;5.14;79.36;101146.06;10221277;29;20236;-67
2022/03/09 03:29:52;;;;;;;16.83;7.10;;;;;;;5.23;78.51;101146.28;10220503;29;20213;-69
2022/03/09 03:34:56;;;;;;;19.80;6.93;;;;;;;5.25;78.21;101140.34;10219980;29;20220;-67
2022/03/09 03:40:00;;;;;;;17.50;6.83;;;;;;;5.27;77.82;101141.25;10220223;29;20602;-66
2022/03/09 03:45:04;;;;;;;15.67;6.90;;;;;;;5.25;77.21;101136.88;10220033;29;20221;-68
2022/03/09 03:50:08;;;;;;;17.43;6.37;;;;;;;5.19;78.30;101145.34;10219878;29;20275;-66
2022/03/09 03:55:13;;;;;;;20.30;7.43;;;;;;;5.24;78.17;101130.88;10219482;29;20239;-68
2022/03/09 04:00:17;;;;;;;17.00;7.40;;;;;;;5.21;77.81;101133.34;10220001;29;20251;-66
2022/03/09 04:05:20;;;;;;;15.90;6.80;;;;;;;5.18;78.36;101143.59;10219225;29;20225;-66
2022/03/09 04:10:25;;;;;;;15.33;6.70;;;;;;;5.22;79.40;101153.13;10219310;29;20221;-68
2022/03/09 04:15:28;;;;;;;15.80;7.17;;;;;;;5.18;79.77;101151.31;10218835;29;20259;-66
2022/03/09 04:20:32;;;;;;;18.50;6.37;;;;;;;5.15;79.46;101156.38;10219200;29;20232;-65
2022/03/09 04:25:36;;;;;;;19.90;7.17;;;;;;;5.15;79.55;101147.78;10218663;29;20236;-68
2022/03/09 04:30:42;;;;;;;17.13;7.53;;;;;;;5.14;80.38;101146.06;10218558;29;20231;-68
2022/03/09 04:35:45;;;;;;;15.87;6.40;;;;;;;5.16;80.33;101145.25;10218190;29;20216;-68
2022/03/09 04:40:50;;;;;;;14.70;7.13;;;;;;;5.18;80.03;101140.13;10218138;29;20718;-65
2022/03/09 04:45:53;;;;;;;17.97;7.20;;;;;;;5.12;81.89;101140.88;10217282;29;20229;-66
2022/03/09 04:50:57;;;;;;;15.13;7.50;;;;;;;5.09;82.26;101142.50;10217800;29;20221;-64
2022/03/09 04:56:01;;;;;;;20.27;9.13;;;;;;;5.00;82.69;101160.28;10216305;29;20224;-66
2022/03/09 05:01:05;;;;;;;20.27;7.97;;;;;;;4.97;82.58;101161.06;10214290;29;20235;-65
2022/03/09 05:06:09;;;;;;;18.87;9.50;;;;;;;4.97;82.94;101157.66;10214310;29;20228;-66
2022/03/09 05:11:14;;;;;;;16.83;7.37;;;;;;;5.00;82.21;101168.88;10214211;29;20221;-67
2022/03/09 05:16:18;;;;;;;17.87;6.83;;;;;;;5.12;80.01;101174.31;10213630;29;20241;-66
2022/03/09 05:21:21;;;;;;;18.60;7.33;;;;;;;5.09;81.88;101178.53;10213976;29;20217;-70
2022/03/09 05:26:26;;;;;;;18.57;7.83;;;;;;;5.12;81.50;101189.75;10215983;29;20541;-66
2022/03/09 05:31:29;;;;;;;18.90;7.33;;;;;;;5.10;81.41;101188.84;10216729;29;20231;-66
2022/03/09 05:36:33;;;;;;;18.80;7.47;;;;;;;5.09;81.94;101193.97;10216629;29;20239;-67
2022/03/09 05:41:38;;;;;;;23.23;7.63;;;;;;;5.18;80.20;101196.75;10216491;29;20227;-73
2022/03/09 05:46:41;;;;;;;17.73;7.17;;;;;;;5.19;79.61;101194.22;10216849;29;20221;-66
2022/03/09 05:51:48;;;;;;;21.77;7.77;;;;;;;5.14;79.16;101194.94;10216500;29;20244;-70
2022/03/09 05:56:52;;;;;;;23.67;8.20;;;;;;;5.22;78.94;101201.13;10217879;29;20702;-66
2022/03/09 06:01:55;;;;;;;19.30;8.53;;;;;;;5.26;78.16;101205.53;10223978;29;20227;-68
2022/03/09 06:06:59;;;;;;;19.60;8.03;;;;;;;5.26;77.59;101203.84;10223755;29;20633;-68
2022/03/09 06:12:04;;;;;;;18.50;8.90;;;;;;;5.28;77.37;101202.16;10223489;29;20665;-67
2022/03/09 06:17:08;;;;;;;25.40;8.53;;;;;;;5.30;76.28;101199.63;10223335;29;20255;-69
2022/03/09 06:22:11;;;;;;;23.13;7.97;;;;;;;5.32;76.00;101203.09;10222970;29;20217;-67
2022/03/09 06:27:15;;;;;;;24.60;9.17;;;;;;;5.41;74.96;101211.94;10222841;29;20213;-69
2022/03/09 06:32:19;;;;;;;22.63;7.93;;;;;;;5.39;76.67;101216.16;10222676;29;20221;-67
2022/03/09 06:37:22;;;;;;;16.87;6.90;;;;;;;5.44;75.95;101221.41;10222676;29;20675;-63
2022/03/09 06:42:27;;;;;;;20.80;6.40;;;;;;;5.49;74.25;101215.56;10222389;29;20235;-66
2022/03/09 06:47:32;;;;;;;16.97;7.20;;;;;;;5.58;73.73;101217.47;10222370;29;20296;-67
2022/03/09 06:52:36;;;;;;;19.73;6.30;;;;;;;5.68;73.27;101224.56;10221897;29;20221;-69
2022/03/09 06:57:42;;;;;;;21.73;7.57;;;;;;;5.70;72.49;101226.34;10222130;29;20232;-66
2022/03/09 07:02:49;;;;;;;20.80;6.50;;;;;;;5.72;73.20;101221.25;10222321;29;20600;-67
2022/03/09 07:07:52;;;;;;;22.93;6.13;;;;;;;5.80;71.90;101219.69;10221220;29;20672;-67
2022/03/09 07:12:57;;;;;;;16.37;6.00;;;;;;;5.86;70.12;101219.88;10246916;28;20741;-69
2022/03/09 07:18:08;;;;;;;15.70;5.37;;;;;;;5.97;69.50;101213.25;10265299;28;20639;-67
2022/03/09 07:23:12;;;;;;;17.20;5.43;;;;;;;6.00;68.75;101210.75;10300211;28;20228;-68
2022/03/09 07:28:16;;;;;;;13.90;6.53;;;;;;;6.13;68.50;101199.88;10299397;28;20215;-68
2022/03/09 07:33:20;;;;;;;13.30;5.17;;;;;;;6.23;68.03;101186.34;10299407;28;20233;-70
2022/03/09 07:38:23;;;;;;;16.03;5.83;;;;;;;6.24;66.96;101190.66;9952711;28;10000920;-68
2022/03/09 07:43:28;;;;;;;19.27;5.60;;;;;;;6.35;67.52;101190.88;10296925;28;20314;-66
2022/03/09 07:48:32;;;;;;;11.57;4.97;;;;;;;6.55;66.73;101185.28;10268722;28;20742;-66
2022/03/09 07:53:42;;;;;;;14.23;4.47;;;;;;;6.68;66.12;101170.88;10256370;29;20311;-69
2022/03/09 07:58:47;;;;;;;14.90;4.73;;;;;;;6.72;65.02;101173.56;10256041;28;20222;-67
2022/03/09 08:03:50;;;;;;;15.57;4.50;;;;;;;6.78;65.93;101183.97;10256122;29;20247;-66
2022/03/09 08:08:54;;;;;;;11.87;4.73;;;;;;;6.81;65.45;101183.19;10255747;28;20702;-65
2022/03/09 08:13:59;;;;;;;11.33;4.83;;;;;;;6.88;66.05;101182.44;10255205;29;20672;-69
2022/03/09 08:19:02;;;;;;;13.40;4.17;;;;;;;7.03;64.72;101178.44;10255065;28;20250;-67
2022/03/09 08:24:11;;;;;;;15.03;4.67;;;;;;;6.97;63.20;101177.47;10254976;29;20235;-70
2022/03/09 08:29:16;;;;;;;9.40;3.83;;;;;;;7.15;63.61;101182.91;10254958;28;20212;-66
2022/03/09 08:34:19;;;;;;;12.27;3.80;;;;;;;7.31;63.63;101190.09;10254632;29;20215;-68
2022/03/09 08:39:22;;;;;;;9.20;3.17;;;;;;;7.35;62.70;101188.41;10254350;28;20230;-66
2022/03/09 08:44:27;;;;;;;9.20;3.20;;;;;;;7.46;60.96;101192.91;10253993;28;20305;-65
2022/03/09 08:49:35;;;;;;;7.33;3.10;;;;;;;7.67;61.96;101201.00;10254116;28;20220;-69
2022/03/09 08:54:40;;;;;;;8.60;2.17;;;;;;;7.86;60.64;101195.25;10253998;29;20735;-68
2022/03/09 08:59:45;;;;;;;7.43;2.83;;;;;;;7.98;60.99;101189.38;10253614;28;20315;-67
2022/03/09 09:04:48;;;;;;;13.97;2.77;;;;;;;7.91;60.60;101196.19;10253592;29;20224;-69
2022/03/09 09:09:51;;;;;;;7.60;2.70;;;;;;;8.18;60.21;101193.06;10253359;28;20563;-69
2022/03/09 09:14:56;;;;;;;8.07;2.80;;;;;;;8.10;60.26;101190.41;10253638;29;20258;-67
2022/03/09 09:20:02;;;;;;;6.53;2.67;;;;;;;8.35;59.38;101199.38;10253840;28;20286;-66
2022/03/09 09:25:06;;;;;;;6.83;2.73;;;;;;;8.44;59.55;101191.72;10254182;29;20228;-67
2022/03/09 09:30:12;;;;;;;8.47;3.00;;;;;;;8.62;58.81;101188.47;10279873;28;20219;-66
2022/03/09 09:35:16;;;;;;;5.43;2.37;;;;;;;8.59;58.62;101186.75;10289914;28;20309;-66
2022/03/09 09:40:24;;;;;;;9.10;2.70;;;;;;;8.67;58.90;101186.78;10252531;28;20535;-69
2022/03/09 09:45:28;;;;;;;10.67;2.83;;;;;;;8.63;60.10;101192.81;10252520;29;20242;-67
2022/03/09 09:50:34;;;;;;;7.93;2.93;;;;;;;8.45;60.16;101195.19;10252515;28;20250;-67
2022/03/09 09:55:37;;;;;;;8.43;3.20;;;;;;;8.49;59.92;101194.38;10253702;29;20226;-66
2022/03/09 10:00:44;;;;;;;7.57;2.47;;;;;;;8.69;59.10;101193.75;10252372;28;20227;-68
2022/03/09 10:05:48;;;;;;;9.87;2.73;;;;;;;8.96;59.07;101188.84;10252115;29;20624;-65
2022/03/09 10:10:56;;;;;;;12.00;5.33;;;;;;;9.18;58.46;101183.00;10252211;28;20279;-68
2022/03/09 10:16:18;;;;;;;8.80;3.43;;;;;;;9.13;59.97;101187.28;10252031;29;20268;-65
2022/03/09 10:21:25;;;;;;;8.10;2.77;;;;;;;8.88;59.08;101193.09;10251979;28;20234;-69
2022/03/09 10:26:30;;;;;;;9.10;2.83;;;;;;;8.74;58.62;101205.00;10251915;29;20224;-65
2022/03/09 10:31:37;;;;;;;8.80;3.20;;;;;;;8.81;58.85;101212.00;10251631;28;20215;-69
2022/03/09 10:36:54;;;;;;;8.13;2.90;;;;;;;8.57;59.01;101209.13;10251746;28;20549;-69
2022/03/09 10:41:59;;;;;;;9.77;3.23;;;;;;;8.62;58.88;101212.63;10251469;28;20223;-68
2022/03/09 10:47:04;;;;;;;10.60;3.00;;;;;;;8.55;59.70;101216.00;10257329;28;20228;-67
2022/03/09 10:52:10;;;;;;;6.93;3.27;;;;;;;8.67;59.16;101200.63;10258771;28;20224;-66
2022/03/09 10:57:14;;;;;;;7.63;2.47;;;;;;;8.68;59.54;101202.34;10258308;29;20235;-68
2022/03/09 11:02:21;;;;;;;10.53;3.00;;;;;;;8.88;60.09;101198.25;10258011;28;20251;-66
2022/03/09 11:07:24;;;;;;;9.03;2.60;;;;;;;8.95;59.02;101197.47;10258078;29;20235;-67
2022/03/09 11:12:28;;;;;;;4.37;1.93;;;;;;;9.14;58.45;101196.78;10257532;28;20332;-64
2022/03/09 11:17:34;;;;;;;8.60;2.90;;;;;;;9.15;58.73;101198.50;10258966;29;20613;-65
2022/03/09 11:22:37;;;;;;;9.33;3.23;;;;;;;9.29;59.06;101207.28;10297225;28;20696;-68
2022/03/09 11:27:50;;;;;;;7.40;2.60;;;;;;;9.29;59.76;101209.88;10300377;28;20242;-68
2022/03/09 11:32:58;;;;;;;7.77;3.43;;;;;;;9.30;59.74;101214.19;10299571;28;20301;-69
2022/03/09 11:38:02;;;;;;;7.57;2.90;;;;;;;9.12;59.57;101218.34;10300437;28;20599;-65
2022/03/09 11:43:28;;;;;;;9.83;3.20;;;;;;;9.03;59.28;101213.94;10299512;28;20310;-66
2022/03/09 11:48:52;;;;;;;11.43;3.40;;;;;;;8.81;60.67;101213.69;10299560;28;20227;-68
2022/03/09 11:53:57;;;;;;;6.73;2.70;;;;;;;8.75;60.55;101218.81;10298994;28;20230;-64
2022/03/09 11:59:21;;;;;;;9.90;3.17;;;;;;;8.81;61.00;101221.47;10299385;28;20215;-64
2022/03/09 12:04:50;;;;;;;11.23;3.33;;;;;;;8.88;60.80;101226.72;10219288;29;20235;-65
2022/03/09 12:09:55;;;;;;;10.50;3.97;;;;;;;8.83;61.38;101227.53;10225196;28;20242;-66
2022/03/09 12:15:03;;;;;;;10.90;4.07;;;;;;;8.77;62.24;101232.63;10258815;28;20244;-67
2022/03/09 12:20:18;;;;;;;13.07;3.73;;;;;;;8.85;62.51;101238.78;10258708;28;20238;-65
2022/03/09 12:25:38;;;;;;;9.00;3.53;;;;;;;8.78;62.33;101252.50;10258027;29;20255;-69
2022/03/09 12:30:41;;;;;;;14.30;3.60;;;;;;;8.64;64.04;101254.03;10258013;28;20310;-65
2022/03/09 12:35:46;;;;;;;8.33;3.53;;;;;;;8.56;63.34;101256.53;10257790;29;20549;-70
2022/03/09 12:40:49;;;;;;;10.50;4.23;;;;;;;8.49;64.75;101257.31;10258050;28;20238;-67
2022/03/09 12:45:53;;;;;;;10.43;4.00;;;;;;;8.45;65.52;101254.66;10256799;29;20746;-65
2022/03/09 12:51:04;;;;;;;12.80;3.87;;;;;;;8.60;64.98;101257.44;10257756;28;20597;-68
2022/03/09 12:56:15;;;;;;;7.90;3.43;;;;;;;8.64;65.56;101259.22;10257300;29;20220;-66
2022/03/09 13:01:36;;;;;;;8.50;2.93;;;;;;;8.76;66.08;101265.44;10257210;28;20559;-65
2022/03/09 13:06:41;;;;;;;10.17;4.00;;;;;;;8.74;67.18;101263.66;10256256;28;20559;-67
2022/03/09 13:11:45;;;;;;;6.90;2.90;;;;;;;8.67;68.61;101274.78;10256350;28;20216;-65
2022/03/09 13:17:01;;;;;;;6.33;3.30;;;;;;;8.53;70.42;101281.50;10256026;29;20255;-66
2022/03/09 13:22:06;;;;;;;7.33;3.43;;;;;;;8.25;72.57;101277.66;10256893;28;20243;-66
2022/03/09 13:27:15;;;;;;;8.03;3.60;;;;;;;8.18;74.64;101275.81;10256344;29;20311;-65
2022/03/09 13:32:32;;;;;;;9.03;3.23;;;;;;;8.23;73.26;101284.53;10255972;28;20704;-68
2022/03/09 13:37:39;;;;;;;11.37;3.83;;;;;;;8.16;73.22;101274.94;10256145;29;20310;-66
2022/03/09 13:42:45;;;;;;;10.83;4.60;;;;;;;8.25;73.35;101280.25;10256031;28;20216;-68
2022/03/09 13:47:51;;;;;;;10.80;3.90;;;;;;;8.14;72.99;101276.63;10255916;29;20388;-67
2022/03/09 13:53:08;;;;;;;11.27;4.73;;;;;;;8.11;73.10;101287.78;10255955;28;20303;-66
2022/03/09 13:58:13;;;;;;;9.10;4.63;;;;;;;8.02;74.27;101284.22;10255686;29;20310;-68
2022/03/09 14:03:19;;;;;;;12.70;3.93;;;;;;;7.97;76.68;101293.63;10255806;28;20216;-72
2022/03/09 14:08:29;;;;;;;13.27;4.40;;;;;;;7.83;78.56;101295.13;10255665;29;20231;-67
2022/03/09 14:13:33;;;;;;;8.67;3.83;;;;;;;7.94;80.63;101301.28;10274348;28;20215;-66
2022/03/09 14:18:36;;;;;;;9.90;3.70;;;;;;;7.82;82.91;101311.44;10297705;28;20243;-70
2022/03/09 14:23:41;;;;;;;15.73;7.23;;;;;;;7.53;85.66;101317.84;10302383;28;20686;-71
2022/03/09 14:28:44;;;;;;;18.47;6.87;;;;;;;7.56;87.39;101318.75;10302969;28;20243;-72
2022/03/09 14:33:47;;;;;;;12.37;5.80;;;;;;;7.50;87.38;101331.59;9938480;28;9999992;-71
2022/03/09 14:38:52;;;;;;;8.70;5.23;;;;;;;7.43;86.18;101326.28;10259030;29;20692;-69
2022/03/09 14:43:55;;;;;;;27.43;12.67;;;;;;;7.15;85.76;101344.66;10258265;28;20212;-64
2022/03/09 14:48:58;;;;;;;9.87;4.70;;;;;;;7.02;87.35;101353.91;10257368;28;20235;-67
2022/03/09 14:54:06;;;;;;;8.70;5.23;;;;;;;6.94;89.63;101363.16;10257339;28;20220;-69
2022/03/09 14:59:09;;;;;;;9.47;6.10;;;;;;;6.57;95.06;101374.44;10257288;29;20230;-68
2022/03/09 15:04:13;;;;;;;9.60;4.70;;;;;;;6.37;100.00;101385.13;10256538;28;20322;-69
2022/03/09 15:09:18;;;;;;;8.20;4.43;;;;;;;6.31;100.00;101393.59;10257199;29;20232;-68
2022/03/09 15:14:21;;;;;;;10.30;4.97;;;;;;;6.09;100.00;101393.91;10245843;28;20254;-68
2022/03/09 15:19:26;;;;;;;10.20;5.67;;;;;;;5.72;100.00;101397.25;10236953;28;20216;-69
2022/03/09 15:24:30;;;;;;;11.07;5.40;;;;;;;5.63;100.00;101403.84;10240697;28;20230;-68
2022/03/09 15:29:34;;;;;;;10.50;5.13;;;;;;;5.54;100.00;101411.34;10239776;28;20224;-68
2022/03/09 15:34:40;;;;;;;14.67;7.40;;;;;;;5.63;100.00;101427.00;10236908;28;20223;-67
2022/03/09 15:39:45;;;;;;;13.40;6.93;;;;;;;5.46;100.00;101430.84;10243522;29;20235;-67
2022/03/09 15:44:48;;;;;;;12.07;6.43;;;;;;;5.30;100.00;101434.69;10242503;28;20307;-66
2022/03/09 15:49:53;;;;;;;15.07;6.57;;;;;;;5.39;100.00;101426.34;10256157;28;20656;-70
2022/03/09 15:54:57;;;;;;;28.50;14.07;;;;;;;5.48;100.00;101439.47;10252346;28;20234;-68
2022/03/09 16:00:04;;;;;;;10.93;6.77;;;;;;;5.45;100.00;101445.41;10245894;29;20216;-69
2022/03/09 16:05:09;;;;;;;12.30;7.10;;;;;;;5.46;100.00;101459.16;10255954;28;20216;-65
2022/03/09 16:10:17;;;;;;;17.93;7.53;;;;;;;5.40;100.00;101464.16;10266234;28;20238;-64
2022/03/09 16:15:22;;;;;;;11.20;5.70;;;;;;;5.43;100.00;101466.81;10255112;29;20246;-65
2022/03/09 16:20:26;;;;;;;12.70;6.60;;;;;;;5.29;100.00;101468.09;10255447;29;20676;-68
2022/03/09 16:25:32;;;;;;;12.17;6.03;;;;;;;5.24;100.00;101479.97;10274699;28;20226;-67
2022/03/09 16:30:35;;;;;;;13.80;7.60;;;;;;;5.22;100.00;101489.34;10273777;28;20223;-70
2022/03/09 16:35:39;;;;;;;12.63;6.50;;;;;;;5.07;100.00;101499.19;10254604;28;20220;-66
2022/03/09 16:40:44;;;;;;;11.83;7.30;;;;;;;5.10;100.00;101499.28;10253699;28;20234;-67
2022/03/09 16:45:50;;;;;;;14.57;7.70;;;;;;;5.18;100.00;101498.66;10254184;28;20323;-66
2022/03/09 16:50:53;;;;;;;15.87;8.60;;;;;;;5.18;100.00;101510.66;10254029;28;20196;-63
2022/03/09 16:55:58;;;;;;;14.57;8.13;;;;;;;5.13;100.00;101520.81;10253597;28;20662;-70
2022/03/09 17:01:01;;;;;;;13.60;8.37;;;;;;;5.00;100.00;101525.53;10253840;28;20196;-66
2022/03/09 17:06:05;;;;;;;15.97;9.17;;;;;;;4.95;100.00;101529.69;10254084;28;20230;-66
2022/03/09 17:11:10;;;;;;;20.63;9.30;;;;;;;4.92;100.00;101539.88;10253631;29;20271;-69
2022/03/09 17:16:16;;;;;;;16.93;9.23;;;;;;;4.88;100.00;101535.44;10253294;28;20267;-67
2022/03/09 17:21:20;;;;;;;22.60;11.63;;;;;;;4.91;100.00;101540.69;10287438;28;20209;-66
2022/03/09 17:26:25;;;;;;;15.27;8.37;;;;;;;4.88;100.00;101558.59;10293439;28;20234;-66
2022/03/09 17:31:28;;;;;;;17.73;9.77;;;;;;;4.82;100.00;101561.84;10291435;28;20268;-67
2022/03/09 17:36:34;;;;;;;18.50;13.97;;;;;;;4.85;100.00;101573.94;10251553;28;20200;-67
2022/03/09 17:41:39;;;;;;;17.27;9.53;;;;;;;4.67;100.00;101585.38;10253123;28;20207;-65
2022/03/09 17:46:43;;;;;;;17.17;8.83;;;;;;;4.72;100.00;101593.22;10252412;29;20694;-65
2022/03/09 17:51:46;;;;;;;17.90;9.63;;;;;;;4.66;99.86;101598.16;10252927;28;20192;-67
2022/03/09 17:56:53;;;;;;;18.40;9.90;;;;;;;4.65;100.00;101607.59;10260348;28;20751;-66
2022/03/09 18:01:56;;;;;;;19.27;9.17;;;;;;;4.71;99.19;101615.50;10260230;28;20231;-67
2022/03/09 18:07:00;;;;;;;15.80;7.90;;;;;;;4.57;97.15;101624.44;10282779;28;20300;-69
2022/03/09 18:12:06;;;;;;;15.80;8.47;;;;;;;4.67;97.33;101631.66;10299938;28;20216;-64
2022/03/09 18:17:09;;;;;;;17.40;8.67;;;;;;;4.52;97.29;101640.53;10299410;28;20239;-65
2022/03/09 18:22:12;;;;;;;16.87;9.23;;;;;;;4.55;98.24;101650.91;10299553;28;20215;-67
2022/03/09 18:27:17;;;;;;;15.20;8.17;;;;;;;4.67;97.23;101659.94;10299347;28;20245;-65
2022/03/09 18:32:21;;;;;;;17.33;8.07;;;;;;;4.79;96.88;101666.31;10299073;28;20223;-65
2022/03/09 18:37:24;;;;;;;13.37;7.37;;;;;;;4.75;95.64;101667.91;10298831;28;20223;-63
2022/03/09 18:42:29;;;;;;;12.40;6.83;;;;;;;4.69;95.35;101683.97;10259296;28;20303;-64
2022/03/09 18:47:32;;;;;;;14.40;6.83;;;;;;;4.54;94.70;101695.41;10259175;28;20319;-66
2022/03/09 18:52:36;;;;;;;12.90;6.57;;;;;;;4.53;94.23;101701.41;10258689;28;20230;-64
2022/03/09 18:57:41;;;;;;;12.97;6.90;;;;;;;4.58;94.40;101713.59;10258249;28;20223;-64
2022/03/09 19:02:44;;;;;;;13.47;6.63;;;;;;;4.46;93.80;101715.72;10258987;28;20239;-64
2022/03/09 19:07:48;;;;;;;13.87;6.57;;;;;;;4.29;92.90;101728.78;10257165;28;20223;-65
2022/03/09 19:12:52;;;;;;;14.17;7.20;;;;;;;4.22;92.10;101737.97;9886187;28;10000814;-66
2022/03/09 19:17:56;;;;;;;11.40;6.63;;;;;;;4.12;92.28;101740.13;10219951;29;20277;-67
2022/03/09 19:22:59;;;;;;;11.90;6.07;;;;;;;4.21;91.95;101746.47;10221166;29;20756;-67
2022/03/09 19:28:04;;;;;;;13.83;7.30;;;;;;;4.15;90.20;101755.66;10220860;29;20254;-64
2022/03/09 19:33:09;;;;;;;15.57;8.37;;;;;;;4.16;90.03;101760.84;10220915;29;20266;-65
2022/03/09 19:38:12;;;;;;;13.17;7.60;;;;;;;4.05;90.32;101763.81;10220388;29;20288;-66
2022/03/09 19:43:20;;;;;;;17.38;9.38;;;;;;;4.08;90.19;101759.69;10217666;29;20436;-70
2022/03/09 19:48:23;;;;;;;14.93;7.87;;;;;;;3.84;90.77;101769.00;10220055;29;20225;-68
2022/03/09 19:53:27;;;;;;;15.60;7.70;;;;;;;3.78;89.74;101778.16;10220152;29;20568;-66
2022/03/09 19:58:33;;;;;;;13.03;6.83;;;;;;;3.81;89.52;101789.44;10220301;29;20229;-68
2022/03/09 20:03:36;;;;;;;13.63;6.00;;;;;;;3.79;88.06;101790.19;10219901;29;20251;-68
2022/03/09 20:08:40;;;;;;;14.38;7.45;;;;;;;3.79;88.10;101798.75;10216866;29;20414;-66
2022/03/09 20:13:45;;;;;;;13.00;6.37;;;;;;;3.67;88.33;101808.53;10219205;29;20227;-67
2022/03/09 20:18:48;;;;;;;10.77;5.57;;;;;;;3.82;84.95;101819.41;10219055;29;20233;-68
2022/03/09 20:23:51;;;;;;;10.90;5.00;;;;;;;3.73;85.11;101829.31;10218786;29;20219;-67
2022/03/09 20:28:56;;;;;;;13.40;5.73;;;;;;;3.57;84.16;101829.50;10218536;29;20565;-69
2022/03/09 20:33:59;;;;;;;12.68;7.10;;;;;;;3.49;86.46;101844.59;10216504;29;20398;-67
2022/03/09 20:39:02;;;;;;;11.13;6.23;;;;;;;3.56;86.70;101848.28;10215573;29;20869;-64
2022/03/09 20:44:07;;;;;;;9.73;5.17;;;;;;;3.54;83.58;101855.91;10219091;29;20344;-66
2022/03/09 20:49:10;;;;;;;10.27;5.10;;;;;;;3.40;81.44;101867.28;10217816;29;20232;-68
2022/03/09 20:54:15;;;;;;;;;;;;;;;2.99;80.97;101882.56;9910835;28;10000622;-64
2022/03/09 20:59:20;;;;;;;;;;;;;;;3.07;80.62;101885.47;10254437;28;20411;-65
2022/03/09 21:04:23;;;;;;;;;;;;;;;2.77;80.17;101899.47;10266366;28;20013;-66
2022/03/09 21:09:26;;;;;;;;;;;;;;;2.64;80.65;101900.59;10275325;28;19932;-68
2022/03/09 21:14:30;;;;;;;;;;;;;;;2.42;81.25;101917.47;10255478;28;19922;-69
2022/03/09 21:19:37;;;;;;;;;;;;;;;2.39;80.55;101925.88;10254607;28;19926;-64
2022/03/09 21:30:02;;;;;;;;;;;;;;;2.13;79.12;101947.69;10253200;29;20017;-67
2022/03/09 21:35:06;;;;;;;;;;;;;;;2.11;80.12;101946.72;10253834;28;20005;-67
2022/03/09 21:40:12;;;;;;;;;;;;;;;2.02;81.27;101950.53;10254059;28;19922;-67
2022/03/09 21:45:19;;;;;;;;;;;;;;;1.94;83.29;101959.47;10253035;28;19926;-68
2022/03/09 21:50:22;;;;;;;;;;;;;;;1.71;84.22;101960.03;10252657;28;19922;-67
2022/03/09 21:55:25;;;;;;;;;;;;;;;1.74;85.45;101963.63;10253008;28;19980;-65
2022/03/09 22:00:30;;;;;;;;;;;;;;;1.58;85.94;101976.41;10251963;28;19929;-65
2022/03/09 22:05:33;;;;;;;;;;;;;;;1.49;86.82;101975.94;10252829;28;19936;-70
2022/03/09 22:10:36;;;;;;;;;;;;;;;1.43;86.85;101988.41;10252506;28;19922;-69
2022/03/09 22:15:42;;;;;;;;;;;;;;;1.37;86.96;101979.53;10252253;28;19922;-66
2022/03/09 22:20:46;;;;;;;;;;;;;;;1.31;87.85;101986.88;10252560;28;19937;-66
2022/03/09 22:25:49;;;;;;;;;;;;;;;1.26;88.52;101993.44;10252320;28;19940;-69
2022/03/09 22:30:56;;;;;;;;;;;;;;;1.22;90.35;101989.84;10252112;28;19934;-66
2022/03/09 22:35:59;;;;;;;;;;;;;;;1.05;90.76;102003.41;10252348;28;20395;-67
2022/03/09 22:41:03;;;;;;;;;;;;;;;1.05;91.07;102003.41;10255097;28;19929;-69
2022/03/09 22:46:07;;;;;;;;;;;;;;;0.87;91.64;102007.50;10259281;28;20270;-66
2022/03/09 22:51:11;;;;;;;;;;;;;;;0.76;93.18;102014.56;10259117;28;19926;-67
2022/03/09 22:56:14;;;;;;;;;;;;;;;0.77;94.59;102018.91;10258818;28;19934;-66
2022/03/09 23:01:18;;;;;;;;;;;;;;;0.79;94.67;102024.09;10259435;28;19922;-73
2022/03/09 23:06:22;;;;;;;;;;;;;;;0.61;95.62;102028.16;10259212;28;19932;-66
2022/03/09 23:11:25;;;;;;;;;;;;;;;0.56;97.14;102032.13;10258446;28;19933;-66
2022/03/09 23:16:34;;;;;;;;;;;;;;;0.44;97.41;102039.09;10258130;28;20390;-64
2022/03/09 23:21:37;;;;;;;;;;;;;;;0.32;98.24;102049.50;10257957;28;19922;-65
2022/03/09 23:26:40;;;;;;;;;;;;;;;0.27;98.78;102050.00;10257940;28;19923;-67
2022/03/09 23:31:45;;;;;;;;;;;;;;;0.24;99.31;102055.84;10258022;28;19923;-68
2022/03/09 23:36:48;;;;;;;;;;;;;;;0.18;99.27;102064.78;10257583;28;19922;-65
2022/03/09 23:41:51;;;;;;;;;;;;;;;0.13;99.51;102061.09;10257692;28;19932;-64
2022/03/09 23:46:55;;;;;;;;;;;;;;;0.12;100.00;102069.56;10257502;28;19922;-68
2022/03/09 23:51:58;;;;;;;;;;;;;;;0.28;97.31;102072.19;10237573;28;19922;-66